createdAt,value
2016-05-03T00:00:36.930Z,0
2016-05-03T00:01:36.918Z,0
2016-05-03T00:02:36.920Z,0
2016-05-03T00:03:36.719Z,0
2016-05-03T00:04:36.847Z,0
2016-05-03T00:05:36.850Z,0
2016-05-03T00:06:36.665Z,0
2016-05-03T00:07:37.934Z,0
2016-05-03T00:08:36.779Z,0
2016-05-03T00:09:36.752Z,0
2016-05-03T00:10:36.567Z,0
2016-05-03T00:11:36.710Z,0
2016-05-03T00:12:36.698Z,0
2016-05-03T00:13:36.668Z,0
2016-05-03T00:14:36.515Z,0
2016-05-03T00:15:36.627Z,0
2016-05-03T00:16:36.614Z,0
2016-05-03T00:17:36.445Z,0
2016-05-03T00:18:36.417Z,0
2016-05-03T00:19:36.560Z,0
2016-05-03T00:20:36.531Z,0
2016-05-03T00:21:36.503Z,0
2016-05-03T00:22:36.350Z,0
2016-05-03T00:23:36.320Z,0
2016-05-03T00:24:36.433Z,0
2016-05-03T00:25:36.581Z,0
2016-05-03T00:26:36.252Z,0
2016-05-03T00:27:36.380Z,0
2016-05-03T00:28:36.537Z,0
2016-05-03T00:29:36.180Z,0
2016-05-03T00:30:36.328Z,0
2016-05-03T00:31:36.300Z,0
2016-05-03T00:32:36.288Z,0
2016-05-03T00:33:36.102Z,0
2016-05-03T00:34:36.089Z,0
2016-05-03T00:35:36.077Z,0
2016-05-03T00:36:36.188Z,0
2016-05-03T00:37:36.694Z,0
2016-05-03T00:38:36.150Z,0
2016-05-03T00:39:36.137Z,0
2016-05-03T00:40:35.812Z,0
2016-05-03T00:41:35.798Z,0
2016-05-03T00:42:35.911Z,0
2016-05-03T00:43:36.038Z,0
2016-05-03T00:44:36.026Z,0
2016-05-03T00:45:36.012Z,0
2016-05-03T00:46:36.000Z,0
2016-05-03T00:47:35.956Z,0
2016-05-03T00:48:35.943Z,0
2016-05-03T00:49:35.929Z,0
2016-05-03T00:50:35.901Z,0
2016-05-03T00:51:35.904Z,0
2016-05-03T00:52:35.953Z,0
2016-05-03T00:53:35.690Z,0
2016-05-03T00:54:35.818Z,0
2016-05-03T00:55:35.649Z,0
2016-05-03T00:56:35.777Z,0
2016-05-03T00:57:35.467Z,0
2016-05-03T00:58:35.750Z,0
2016-05-03T00:59:35.566Z,0
2016-05-03T01:00:35.538Z,0
2016-05-03T01:01:35.680Z,0
2016-05-03T01:02:35.653Z,0
2016-05-03T01:03:35.639Z,0
2016-05-03T01:04:35.610Z,0
2016-05-03T01:05:35.598Z,0
2016-05-03T01:06:35.569Z,0
2016-05-03T01:07:36.057Z,0
2016-05-03T01:08:35.527Z,0
2016-05-03T01:09:35.516Z,0
2016-05-03T01:10:35.360Z,0
2016-05-03T01:11:35.474Z,0
2016-05-03T01:12:35.445Z,0
2016-05-03T01:13:35.431Z,0
2016-05-03T01:14:35.404Z,0
2016-05-03T01:15:35.234Z,0
2016-05-03T01:16:35.377Z,0
2016-05-03T01:17:35.348Z,0
2016-05-03T01:18:35.333Z,0
2016-05-03T01:19:35.149Z,0
2016-05-03T01:20:35.292Z,0
2016-05-03T01:21:35.263Z,0
2016-05-03T01:22:36.159Z,0
2016-05-03T01:23:35.237Z,0
2016-05-03T01:24:35.209Z,0
2016-05-03T01:25:35.181Z,0
2016-05-03T01:26:35.011Z,0
2016-05-03T01:27:35.170Z,0
2016-05-03T01:28:35.111Z,0
2016-05-03T01:29:34.956Z,0
2016-05-03T01:30:34.944Z,0
2016-05-03T01:31:35.055Z,0
2016-05-03T01:32:35.028Z,0
2016-05-03T01:33:35.014Z,0
2016-05-03T01:34:34.845Z,0
2016-05-03T01:35:34.973Z,0
2016-05-03T01:36:34.944Z,0
2016-05-03T01:37:34.791Z,0
2016-05-03T01:38:34.919Z,0
2016-05-03T01:39:34.905Z,0
2016-05-03T01:40:34.893Z,0
2016-05-03T01:41:34.849Z,0
2016-05-03T01:42:34.680Z,0
2016-05-03T01:43:34.807Z,0
2016-05-03T01:44:34.779Z,0
2016-05-03T01:45:34.765Z,0
2016-05-03T01:46:34.612Z,0
2016-05-03T01:47:34.740Z,0
2016-05-03T01:48:34.711Z,0
2016-05-03T01:49:34.682Z,0
2016-05-03T01:50:34.670Z,0
2016-05-03T01:51:34.641Z,0
2016-05-03T01:52:35.425Z,0
2016-05-03T01:53:34.616Z,0
2016-05-03T01:54:34.587Z,0
2016-05-03T01:55:34.573Z,0
2016-05-03T01:56:34.546Z,0
2016-05-03T01:57:34.517Z,0
2016-05-03T01:58:34.503Z,0
2016-05-03T01:59:34.490Z,0
2016-05-03T02:00:34.462Z,0
2016-05-03T02:01:34.434Z,0
2016-05-03T02:02:34.436Z,0
2016-05-03T02:03:34.236Z,0
2016-05-03T02:04:34.067Z,0
2016-05-03T02:05:34.211Z,0
2016-05-03T02:06:34.339Z,0
2016-05-03T02:07:34.011Z,0
2016-05-03T02:08:34.297Z,0
2016-05-03T02:09:33.971Z,0
2016-05-03T02:10:34.099Z,0
2016-05-03T02:11:34.227Z,0
2016-05-03T02:12:34.213Z,0
2016-05-03T02:13:34.185Z,0
2016-05-03T02:14:34.031Z,0
2016-05-03T02:15:34.002Z,0
2016-05-03T02:16:34.130Z,0
2016-05-03T02:17:34.102Z,0
2016-05-03T02:18:34.088Z,0
2016-05-03T02:19:34.091Z,0
2016-05-03T02:20:34.047Z,0
2016-05-03T02:21:34.035Z,0
2016-05-03T02:22:34.021Z,0
2016-05-03T02:23:33.977Z,0
2016-05-03T02:24:33.964Z,0
2016-05-03T02:25:33.935Z,0
2016-05-03T02:26:33.938Z,0
2016-05-03T02:27:33.910Z,0
2016-05-03T02:28:33.881Z,0
2016-05-03T02:29:33.556Z,0
2016-05-03T02:30:33.684Z,0
2016-05-03T02:31:33.812Z,0
2016-05-03T02:32:33.642Z,0
2016-05-03T02:33:33.769Z,0
2016-05-03T02:34:33.757Z,0
2016-05-03T02:35:33.744Z,0
2016-05-03T02:36:33.715Z,0
2016-05-03T02:37:34.608Z,0
2016-05-03T02:38:33.518Z,0
2016-05-03T02:39:33.645Z,0
2016-05-03T02:40:33.632Z,0
2016-05-03T02:41:33.494Z,0
2016-05-03T02:42:33.606Z,0
2016-05-03T02:43:33.563Z,0
2016-05-03T02:44:33.394Z,0
2016-05-03T02:45:33.521Z,0
2016-05-03T02:46:33.352Z,0
2016-05-03T02:47:33.355Z,0
2016-05-03T02:48:33.310Z,0
2016-05-03T02:49:33.297Z,0
2016-05-03T02:50:33.424Z,0
2016-05-03T02:51:33.397Z,0
2016-05-03T02:52:33.415Z,0
2016-05-03T02:53:33.386Z,0
2016-05-03T02:54:33.186Z,0
2016-05-03T02:55:33.158Z,0
2016-05-03T02:56:33.160Z,0
2016-05-03T02:57:33.288Z,0
2016-05-03T02:58:33.104Z,0
2016-05-03T02:59:33.246Z,0
2016-05-03T03:00:33.218Z,0
2016-05-03T03:01:33.048Z,0
2016-05-03T03:02:33.192Z,0
2016-05-03T03:03:33.148Z,0
2016-05-03T03:04:33.135Z,0
2016-05-03T03:05:33.122Z,0
2016-05-03T03:06:33.109Z,0
2016-05-03T03:07:32.768Z,0
2016-05-03T03:08:33.051Z,0
2016-05-03T03:09:32.882Z,0
2016-05-03T03:10:33.026Z,0
2016-05-03T03:11:32.981Z,0
2016-05-03T03:12:32.672Z,0
2016-05-03T03:13:32.939Z,0
2016-05-03T03:14:32.928Z,0
2016-05-03T03:15:32.899Z,0
2016-05-03T03:16:32.886Z,0
2016-05-03T03:17:32.717Z,0
2016-05-03T03:18:32.860Z,0
2016-05-03T03:19:32.535Z,0
2016-05-03T03:20:32.802Z,0
2016-05-03T03:21:32.618Z,0
2016-05-03T03:22:33.183Z,0
2016-05-03T03:23:32.749Z,0
2016-05-03T03:24:32.579Z,0
2016-05-03T03:25:32.691Z,0
2016-05-03T03:26:32.678Z,0
2016-05-03T03:27:32.649Z,0
2016-05-03T03:28:32.480Z,0
2016-05-03T03:29:32.468Z,0
2016-05-03T03:30:32.596Z,0
2016-05-03T03:31:32.411Z,0
2016-05-03T03:32:32.554Z,0
2016-05-03T03:33:32.385Z,0
2016-05-03T03:34:32.512Z,0
2016-05-03T03:35:32.343Z,0
2016-05-03T03:36:32.846Z,0
2016-05-03T03:37:32.333Z,0
2016-05-03T03:38:32.429Z,0
2016-05-03T03:39:32.417Z,0
2016-05-03T03:40:32.387Z,0
2016-05-03T03:41:32.375Z,0
2016-05-03T03:42:32.347Z,0
2016-05-03T03:43:32.334Z,0
2016-05-03T03:44:32.306Z,0
2016-05-03T03:45:32.291Z,0
2016-05-03T03:46:32.263Z,0
2016-05-03T03:47:32.250Z,0
2016-05-03T03:48:32.066Z,0
2016-05-03T03:49:32.208Z,0
2016-05-03T03:50:32.025Z,0
2016-05-03T03:51:32.152Z,0
2016-05-03T03:52:31.842Z,0
2016-05-03T03:53:32.110Z,0
2016-05-03T03:54:32.097Z,0
2016-05-03T03:55:32.068Z,0
2016-05-03T03:56:32.056Z,0
2016-05-03T03:57:32.027Z,0
2016-05-03T03:58:32.014Z,0
2016-05-03T03:59:31.985Z,5
2016-05-03T04:00:31.973Z,5
2016-05-03T04:01:31.944Z,5
2016-05-03T04:02:31.947Z,5
2016-05-03T04:03:31.918Z,5
2016-05-03T04:04:31.749Z,5
2016-05-03T04:05:31.862Z,5
2016-05-03T04:06:31.849Z,0
2016-05-03T04:07:31.835Z,0
2016-05-03T04:08:31.806Z,0
2016-05-03T04:09:31.637Z,0
2016-05-03T04:10:31.765Z,5
2016-05-03T04:11:31.581Z,5
2016-05-03T04:12:31.740Z,5
2016-05-03T04:13:31.556Z,5
2016-05-03T04:14:31.682Z,5
2016-05-03T04:15:31.513Z,5
2016-05-03T04:16:31.641Z,5
2016-05-03T04:17:31.612Z,5
2016-05-03T04:18:31.287Z,5
2016-05-03T04:19:31.586Z,10
2016-05-03T04:20:31.558Z,10
2016-05-03T04:21:31.534Z,15
2016-05-03T04:22:32.005Z,20
2016-05-03T04:23:31.586Z,20
2016-05-03T04:24:31.463Z,15
2016-05-03T04:25:31.638Z,15
2016-05-03T04:26:31.511Z,10
2016-05-03T04:27:31.515Z,10
2016-05-03T04:28:31.502Z,10
2016-05-03T04:29:31.647Z,15
2016-05-03T04:30:31.494Z,15
2016-05-03T04:31:31.637Z,20
2016-05-03T04:32:31.458Z,25
2016-05-03T04:33:31.468Z,25
2016-05-03T04:34:31.602Z,30
2016-05-03T04:35:31.423Z,30
2016-05-03T04:36:31.555Z,25
2016-05-03T04:37:31.421Z,20
2016-05-03T04:38:31.379Z,25
2016-05-03T04:39:31.492Z,30
2016-05-03T04:40:31.342Z,35
2016-05-03T04:41:31.472Z,40
2016-05-03T04:42:31.303Z,45
2016-05-03T04:43:31.495Z,45
2016-05-03T04:44:31.404Z,50
2016-05-03T04:45:31.080Z,50
2016-05-03T04:46:31.364Z,55
2016-05-03T04:47:31.351Z,55
2016-05-03T04:48:31.167Z,60
2016-05-03T04:49:31.310Z,60
2016-05-03T04:50:31.282Z,60
2016-05-03T04:51:31.254Z,60
2016-05-03T04:52:31.319Z,60
2016-05-03T04:53:31.056Z,65
2016-05-03T04:54:31.043Z,70
2016-05-03T04:55:31.171Z,85
2016-05-03T04:56:31.002Z,90
2016-05-03T04:57:31.145Z,90
2016-05-03T04:58:31.101Z,85
2016-05-03T04:59:31.088Z,75
2016-05-03T05:00:30.903Z,60
2016-05-03T05:01:31.031Z,45
2016-05-03T05:02:31.018Z,35
2016-05-03T05:03:31.006Z,35
2016-05-03T05:04:30.976Z,40
2016-05-03T05:05:30.964Z,60
2016-05-03T05:06:30.966Z,55
2016-05-03T05:07:31.047Z,45
2016-05-03T05:08:30.894Z,50
2016-05-03T05:09:30.725Z,50
2016-05-03T05:10:30.711Z,45
2016-05-03T05:11:30.824Z,25
2016-05-03T05:12:30.655Z,15
2016-05-03T05:13:30.641Z,20
2016-05-03T05:14:30.769Z,35
2016-05-03T05:15:30.756Z,50
2016-05-03T05:16:30.727Z,55
2016-05-03T05:17:30.543Z,55
2016-05-03T05:18:30.686Z,50
2016-05-03T05:19:30.641Z,55
2016-05-03T05:20:30.644Z,55
2016-05-03T05:21:30.616Z,55
2016-05-03T05:22:30.682Z,60
2016-05-03T05:23:30.590Z,65
2016-05-03T05:24:30.530Z,70
2016-05-03T05:25:30.518Z,80
2016-05-03T05:26:30.489Z,90
2016-05-03T05:27:30.460Z,95
2016-05-03T05:28:30.290Z,100
2016-05-03T05:29:30.278Z,100
2016-05-03T05:30:30.406Z,110
2016-05-03T05:31:29.924Z,135
2016-05-03T05:32:30.348Z,140
2016-05-03T05:33:30.336Z,175
2016-05-03T05:34:30.323Z,180
2016-05-03T05:35:30.122Z,155
2016-05-03T05:36:30.266Z,135
2016-05-03T05:37:31.019Z,120
2016-05-03T05:38:30.224Z,115
2016-05-03T05:39:30.196Z,115
2016-05-03T05:40:30.167Z,120
2016-05-03T05:41:30.169Z,110
2016-05-03T05:42:30.141Z,100
2016-05-03T05:43:30.113Z,90
2016-05-03T05:44:30.240Z,90
2016-05-03T05:45:30.055Z,90
2016-05-03T05:46:30.027Z,95
2016-05-03T05:47:29.999Z,95
2016-05-03T05:48:29.985Z,95
2016-05-03T05:49:29.801Z,85
2016-05-03T05:50:29.788Z,75
2016-05-03T05:51:29.916Z,65
2016-05-03T05:52:30.746Z,60
2016-05-03T05:53:29.874Z,60
2016-05-03T05:54:29.830Z,65
2016-05-03T05:55:29.676Z,65
2016-05-03T05:56:29.804Z,70
2016-05-03T05:57:29.619Z,70
2016-05-03T05:58:29.762Z,70
2016-05-03T05:59:29.734Z,75
2016-05-03T06:00:29.706Z,80
2016-05-03T06:01:29.676Z,90
2016-05-03T06:02:29.664Z,100
2016-05-03T06:03:29.322Z,110
2016-05-03T06:04:29.607Z,115
2016-05-03T06:05:29.595Z,125
2016-05-03T06:06:29.565Z,135
2016-05-03T06:07:32.083Z,135
2016-05-03T06:08:29.523Z,145
2016-05-03T06:09:29.339Z,145
2016-05-03T06:10:29.311Z,145
2016-05-03T06:11:29.126Z,155
2016-05-03T06:12:29.425Z,160
2016-05-03T06:13:29.380Z,160
2016-05-03T06:14:29.306Z,160
2016-05-03T06:15:29.339Z,160
2016-05-03T06:16:29.327Z,165
2016-05-03T06:17:28.845Z,175
2016-05-03T06:18:29.286Z,185
2016-05-03T06:19:29.257Z,190
2016-05-03T06:20:29.088Z,195
2016-05-03T06:21:29.215Z,205
2016-05-03T06:22:29.202Z,210
2016-05-03T06:23:29.158Z,215
2016-05-03T06:24:29.130Z,215
2016-05-03T06:25:29.116Z,220
2016-05-03T06:26:29.087Z,230
2016-05-03T06:27:29.060Z,235
2016-05-03T06:28:29.031Z,245
2016-05-03T06:29:28.862Z,255
2016-05-03T06:30:28.833Z,255
2016-05-03T06:31:28.976Z,255
2016-05-03T06:32:28.807Z,255
2016-05-03T06:33:28.966Z,255
2016-05-03T06:34:28.906Z,260
2016-05-03T06:35:28.878Z,275
2016-05-03T06:36:28.849Z,290
2016-05-03T06:37:29.259Z,305
2016-05-03T06:38:28.807Z,325
2016-05-03T06:39:28.779Z,340
2016-05-03T06:40:28.766Z,350
2016-05-03T06:41:28.597Z,355
2016-05-03T06:42:28.709Z,400
2016-05-03T06:43:28.806Z,440
2016-05-03T06:44:28.511Z,465
2016-05-03T06:45:28.654Z,480
2016-05-03T06:46:28.469Z,515
2016-05-03T06:47:28.597Z,555
2016-05-03T06:48:28.428Z,595
2016-05-03T06:49:28.400Z,650
2016-05-03T06:50:28.527Z,595
2016-05-03T06:51:28.514Z,530
2016-05-03T06:52:28.752Z,575
2016-05-03T06:53:28.394Z,665
2016-05-03T06:54:28.460Z,745
2016-05-03T06:55:28.415Z,790
2016-05-03T06:56:28.388Z,750
2016-05-03T06:57:28.218Z,795
2016-05-03T06:58:28.205Z,810
2016-05-03T06:59:28.177Z,785
2016-05-03T07:00:28.304Z,715
2016-05-03T07:01:28.307Z,720
2016-05-03T07:02:28.248Z,685
2016-05-03T07:03:28.234Z,680
2016-05-03T07:04:28.221Z,655
2016-05-03T07:05:28.209Z,640
2016-05-03T07:06:28.180Z,555
2016-05-03T07:07:28.026Z,500
2016-05-03T07:08:27.967Z,480
2016-05-03T07:09:28.109Z,425
2016-05-03T07:10:28.128Z,375
2016-05-03T07:11:28.068Z,310
2016-05-03T07:12:28.040Z,265
2016-05-03T07:13:28.028Z,295
2016-05-03T07:14:27.998Z,365
2016-05-03T07:15:27.970Z,385
2016-05-03T07:16:27.956Z,360
2016-05-03T07:17:27.928Z,370
2016-05-03T07:18:27.759Z,335
2016-05-03T07:19:27.886Z,300
2016-05-03T07:20:27.702Z,315
2016-05-03T07:21:27.845Z,360
2016-05-03T07:22:29.192Z,435
2016-05-03T07:23:27.647Z,460
2016-05-03T07:24:27.619Z,455
2016-05-03T07:25:27.778Z,440
2016-05-03T07:26:27.733Z,405
2016-05-03T07:27:27.721Z,360
2016-05-03T07:28:27.692Z,335
2016-05-03T07:29:27.680Z,375
2016-05-03T07:30:27.338Z,435
2016-05-03T07:31:27.622Z,425
2016-05-03T07:32:27.610Z,390
2016-05-03T07:33:27.581Z,435
2016-05-03T07:34:27.552Z,580
2016-05-03T07:35:27.539Z,605
2016-05-03T07:36:27.354Z,620
2016-05-03T07:37:27.326Z,650
2016-05-03T07:38:27.328Z,860
2016-05-03T07:39:27.301Z,990
2016-05-03T07:40:27.428Z,1095
2016-05-03T07:41:27.087Z,1505
2016-05-03T07:42:27.387Z,1255
2016-05-03T07:43:27.483Z,1495
2016-05-03T07:44:27.189Z,1265
2016-05-03T07:45:27.316Z,870
2016-05-03T07:46:27.303Z,840
2016-05-03T07:47:27.275Z,795
2016-05-03T07:48:27.262Z,620
2016-05-03T07:49:27.280Z,550
2016-05-03T07:50:27.220Z,565
2016-05-03T07:51:27.192Z,430
2016-05-03T07:52:28.475Z,400
2016-05-03T07:53:27.150Z,420
2016-05-03T07:54:26.981Z,435
2016-05-03T07:55:27.141Z,480
2016-05-03T07:56:26.955Z,555
2016-05-03T07:57:27.066Z,1975
2016-05-03T07:58:32.601Z,2230
2016-05-03T07:59:27.041Z,2375
2016-05-03T08:00:27.013Z,2480
2016-05-03T08:01:26.985Z,2090
2016-05-03T08:02:26.972Z,2605
2016-05-03T08:03:26.958Z,2490
2016-05-03T08:04:26.930Z,1235
2016-05-03T08:05:26.777Z,2480
2016-05-03T08:06:26.748Z,2255
2016-05-03T08:07:26.735Z,1380
2016-05-03T08:08:26.910Z,1270
2016-05-03T08:09:26.849Z,1655
2016-05-03T08:10:26.820Z,730
2016-05-03T08:11:27.277Z,590
2016-05-03T08:12:26.826Z,610
2016-05-03T08:13:26.766Z,715
2016-05-03T08:14:26.770Z,660
2016-05-03T08:15:26.819Z,615
2016-05-03T08:16:26.556Z,605
2016-05-03T08:17:26.700Z,1045
2016-05-03T08:18:26.545Z,2350
2016-05-03T08:19:26.658Z,2385
2016-05-03T08:20:26.644Z,2325
2016-05-03T08:21:26.475Z,2465
2016-05-03T08:22:26.963Z,2560
2016-05-03T08:23:26.434Z,2635
2016-05-03T08:24:26.436Z,2450
2016-05-03T08:25:27.158Z,2260
2016-05-03T08:26:26.599Z,2540
2016-05-03T08:27:26.366Z,2865
2016-05-03T08:28:26.354Z,2485
2016-05-03T08:29:26.497Z,2640
2016-05-03T08:30:26.328Z,2690
2016-05-03T08:31:26.315Z,2745
2016-05-03T08:32:26.302Z,2795
2016-05-03T08:33:26.429Z,1715
2016-05-03T08:34:26.260Z,2760
2016-05-03T08:35:26.404Z,2950
2016-05-03T08:36:26.406Z,2680
2016-05-03T08:37:26.237Z,2630
2016-05-03T08:38:26.365Z,2920
2016-05-03T08:39:26.195Z,720
2016-05-03T08:40:26.198Z,2675
2016-05-03T08:41:26.310Z,2590
2016-05-03T08:42:26.328Z,2840
2016-05-03T08:43:26.378Z,2965
2016-05-03T08:44:26.273Z,2715
2016-05-03T08:45:26.384Z,2740
2016-05-03T08:46:26.245Z,2550
2016-05-03T08:47:26.234Z,4715
2016-05-03T08:48:26.220Z,3660
2016-05-03T08:49:26.206Z,2660
2016-05-03T08:50:26.053Z,1060
2016-05-03T08:51:25.884Z,1730
2016-05-03T08:52:26.183Z,3350
2016-05-03T08:53:25.999Z,3555
2016-05-03T08:54:26.142Z,3650
2016-05-03T08:55:26.145Z,2020
2016-05-03T08:56:26.133Z,1370
2016-05-03T08:57:25.947Z,1250
2016-05-03T08:58:25.950Z,2095
2016-05-03T08:59:26.125Z,2165
2016-05-03T09:00:26.065Z,2865
2016-05-03T09:01:25.911Z,2880
2016-05-03T09:02:26.054Z,2830
2016-05-03T09:03:26.041Z,2845
2016-05-03T09:04:26.029Z,2625
2016-05-03T09:05:26.016Z,2885
2016-05-03T09:06:25.862Z,2835
2016-05-03T09:07:26.334Z,3110
2016-05-03T09:08:25.852Z,2445
2016-05-03T09:09:25.964Z,1675
2016-05-03T09:10:25.967Z,1115
2016-05-03T09:11:25.938Z,3115
2016-05-03T09:12:25.613Z,2380
2016-05-03T09:13:25.943Z,1250
2016-05-03T09:14:25.931Z,2485
2016-05-03T09:15:25.776Z,950
2016-05-03T09:16:25.748Z,950
2016-05-03T09:17:25.892Z,1020
2016-05-03T09:18:25.863Z,905
2016-05-03T09:19:25.850Z,855
2016-05-03T09:20:25.697Z,795
2016-05-03T09:21:25.527Z,750
2016-05-03T09:22:25.811Z,710
2016-05-03T09:23:25.658Z,685
2016-05-03T09:24:25.801Z,640
2016-05-03T09:25:25.616Z,620
2016-05-03T09:26:25.744Z,595
2016-05-03T09:27:25.747Z,575
2016-05-03T09:28:25.562Z,680
2016-05-03T09:29:25.705Z,770
2016-05-03T09:30:25.692Z,2855
2016-05-03T09:31:25.366Z,2980
2016-05-03T09:32:25.666Z,2960
2016-05-03T09:33:25.637Z,2895
2016-05-03T09:34:25.485Z,2960
2016-05-03T09:35:25.612Z,3050
2016-05-03T09:36:25.615Z,3150
2016-05-03T09:37:25.946Z,3160
2016-05-03T09:38:25.557Z,3190
2016-05-03T09:39:25.388Z,3370
2016-05-03T09:40:25.391Z,3540
2016-05-03T09:41:25.534Z,3555
2016-05-03T09:42:25.818Z,3415
2016-05-03T09:43:25.509Z,1195
2016-05-03T09:44:25.496Z,1195
2016-05-03T09:45:25.482Z,1970
2016-05-03T09:46:25.314Z,2165
2016-05-03T09:47:25.457Z,740
2016-05-03T09:48:25.444Z,805
2016-05-03T09:49:25.415Z,3015
2016-05-03T09:50:25.105Z,2960
2016-05-03T09:51:25.406Z,2795
2016-05-03T09:52:25.376Z,2960
2016-05-03T09:53:25.378Z,2955
2016-05-03T09:54:25.211Z,2955
2016-05-03T09:55:25.213Z,3050
2016-05-03T09:56:25.184Z,3125
2016-05-03T09:57:25.328Z,3270
2016-05-03T09:58:25.314Z,3410
2016-05-03T09:59:25.317Z,3395
2016-05-03T10:00:25.288Z,3535
2016-05-03T10:01:25.136Z,3690
2016-05-03T10:02:25.278Z,3680
2016-05-03T10:03:25.109Z,2280
2016-05-03T10:04:25.252Z,1975
2016-05-03T10:05:25.240Z,2580
2016-05-03T10:06:25.070Z,1650
2016-05-03T10:07:25.073Z,985
2016-05-03T10:08:25.216Z,975
2016-05-03T10:09:25.046Z,1015
2016-05-03T10:10:25.190Z,1050
2016-05-03T10:11:25.177Z,1070
2016-05-03T10:12:25.024Z,1090
2016-05-03T10:13:24.995Z,1080
2016-05-03T10:14:24.998Z,1095
2016-05-03T10:15:24.970Z,1105
2016-05-03T10:16:24.957Z,1120
2016-05-03T10:17:24.943Z,1150
2016-05-03T10:18:25.087Z,1195
2016-05-03T10:19:24.902Z,1230
2016-05-03T10:20:25.046Z,1585
2016-05-03T10:21:27.486Z,1505
2016-05-03T10:22:27.331Z,1150
2016-05-03T10:23:25.006Z,1400
2016-05-03T10:24:24.994Z,1400
2016-05-03T10:25:24.981Z,3675
2016-05-03T10:26:24.968Z,2100
2016-05-03T10:27:24.799Z,3650
2016-05-03T10:28:24.786Z,3740
2016-05-03T10:29:24.773Z,3675
2016-05-03T10:30:24.744Z,3660
2016-05-03T10:31:24.731Z,3030
2016-05-03T10:32:24.875Z,1620
2016-05-03T10:33:24.846Z,1255
2016-05-03T10:34:24.849Z,1275
2016-05-03T10:35:24.821Z,1805
2016-05-03T10:36:24.808Z,2285
2016-05-03T10:37:24.794Z,3180
2016-05-03T10:38:24.797Z,1875
2016-05-03T10:39:24.613Z,2915
2016-05-03T10:40:24.599Z,2935
2016-05-03T10:41:24.743Z,2800
2016-05-03T10:42:24.574Z,830
2016-05-03T10:43:24.404Z,790
2016-05-03T10:44:24.548Z,755
2016-05-03T10:45:24.691Z,740
2016-05-03T10:46:24.678Z,740
2016-05-03T10:47:24.649Z,745
2016-05-03T10:48:24.495Z,765
2016-05-03T10:49:24.639Z,795
2016-05-03T10:50:24.642Z,850
2016-05-03T10:51:24.598Z,890
2016-05-03T10:52:24.585Z,975
2016-05-03T10:53:24.415Z,1090
2016-05-03T10:54:24.542Z,1170
2016-05-03T10:55:24.390Z,1255
2016-05-03T10:56:24.533Z,1430
2016-05-03T10:57:24.348Z,1325
2016-05-03T10:58:24.398Z,1100
2016-05-03T10:59:24.478Z,1070
2016-05-03T11:00:24.450Z,1055
2016-05-03T11:01:24.281Z,1045
2016-05-03T11:02:24.283Z,1085
2016-05-03T11:03:24.411Z,1150
2016-05-03T11:04:24.383Z,1250
2016-05-03T11:05:24.369Z,1370
2016-05-03T11:06:24.513Z,1335
2016-05-03T11:07:24.360Z,1255
2016-05-03T11:08:24.659Z,1285
2016-05-03T11:09:24.616Z,1310
2016-05-03T11:10:24.399Z,1400
2016-05-03T11:11:24.338Z,1340
2016-05-03T11:12:24.342Z,1285
2016-05-03T11:13:24.093Z,1205
2016-05-03T11:14:24.065Z,1250
2016-05-03T11:15:24.224Z,1210
2016-05-03T11:16:24.196Z,1045
2016-05-03T11:17:24.199Z,1000
2016-05-03T11:18:24.170Z,945
2016-05-03T11:19:24.142Z,930
2016-05-03T11:20:24.128Z,1130
2016-05-03T11:21:24.116Z,1085
2016-05-03T11:22:24.087Z,1075
2016-05-03T11:23:24.950Z,1000
2016-05-03T11:24:24.078Z,955
2016-05-03T11:25:24.048Z,965
2016-05-03T11:26:23.876Z,1010
2016-05-03T11:27:24.020Z,1110
2016-05-03T11:28:23.992Z,1200
2016-05-03T11:29:23.978Z,1310
2016-05-03T11:30:23.966Z,1295
2016-05-03T11:31:23.953Z,1305
2016-05-03T11:32:23.939Z,1305
2016-05-03T11:33:23.911Z,1225
2016-05-03T11:34:23.914Z,1185
2016-05-03T11:35:23.729Z,1185
2016-05-03T11:36:23.872Z,1330
2016-05-03T11:37:23.844Z,1380
2016-05-03T11:38:23.830Z,1435
2016-05-03T11:39:24.036Z,1470
2016-05-03T11:40:23.805Z,1485
2016-05-03T11:41:23.666Z,1380
2016-05-03T11:42:23.764Z,1295
2016-05-03T11:43:24.188Z,1105
2016-05-03T11:44:23.582Z,1035
2016-05-03T11:45:23.413Z,970
2016-05-03T11:46:23.712Z,935
2016-05-03T11:47:23.698Z,920
2016-05-03T11:48:23.514Z,940
2016-05-03T11:49:23.642Z,990
2016-05-03T11:50:23.629Z,1070
2016-05-03T11:51:23.632Z,1170
2016-05-03T11:52:23.603Z,1275
2016-05-03T11:53:23.824Z,1310
2016-05-03T11:54:23.561Z,1310
2016-05-03T11:55:24.346Z,1270
2016-05-03T11:56:25.864Z,1215
2016-05-03T11:57:23.867Z,1350
2016-05-03T11:58:24.837Z,1465
2016-05-03T11:59:23.481Z,1510
2016-05-03T12:00:23.484Z,1320
2016-05-03T12:01:23.642Z,1300
2016-05-03T12:02:23.553Z,1270
2016-05-03T12:03:23.461Z,1140
2016-05-03T12:04:23.619Z,1100
2016-05-03T12:05:24.075Z,1110
2016-05-03T12:06:24.688Z,1115
2016-05-03T12:07:24.659Z,1085
2016-05-03T12:08:23.194Z,1040
2016-05-03T12:09:23.492Z,945
2016-05-03T12:10:23.324Z,770
2016-05-03T12:11:23.295Z,555
2016-05-03T12:12:23.125Z,535
2016-05-03T12:13:23.113Z,525
2016-05-03T12:14:23.255Z,535
2016-05-03T12:15:23.228Z,540
2016-05-03T12:16:23.215Z,555
2016-05-03T12:17:23.201Z,590
2016-05-03T12:18:23.032Z,595
2016-05-03T12:19:23.160Z,580
2016-05-03T12:20:23.163Z,615
2016-05-03T12:21:22.979Z,695
2016-05-03T12:22:22.949Z,725
2016-05-03T12:23:37.080Z,695
2016-05-03T12:24:23.080Z,610
2016-05-03T12:25:23.068Z,695
2016-05-03T12:26:22.882Z,625
2016-05-03T12:27:23.056Z,605
2016-05-03T12:28:22.997Z,660
2016-05-03T12:29:23.171Z,780
2016-05-03T12:30:22.830Z,845
2016-05-03T12:31:22.958Z,750
2016-05-03T12:32:22.929Z,835
2016-05-03T12:33:22.917Z,910
2016-05-03T12:34:22.748Z,1010
2016-05-03T12:35:22.719Z,1065
2016-05-03T12:36:22.861Z,1160
2016-05-03T12:37:23.208Z,1115
2016-05-03T12:38:23.274Z,865
2016-05-03T12:39:22.808Z,805
2016-05-03T12:40:23.342Z,775
2016-05-03T12:41:22.766Z,770
2016-05-03T12:42:22.753Z,770
2016-05-03T12:43:22.583Z,755
2016-05-03T12:44:22.571Z,745
2016-05-03T12:45:22.713Z,730
2016-05-03T12:46:22.546Z,710
2016-05-03T12:47:22.658Z,715
2016-05-03T12:48:22.660Z,730
2016-05-03T12:49:23.335Z,750
2016-05-03T12:50:22.602Z,775
2016-05-03T12:51:22.590Z,805
2016-05-03T12:52:22.576Z,845
2016-05-03T12:53:22.564Z,875
2016-05-03T12:54:22.238Z,925
2016-05-03T12:55:22.537Z,945
2016-05-03T12:56:22.509Z,950
2016-05-03T12:57:22.496Z,990
2016-05-03T12:58:22.468Z,885
2016-05-03T12:59:22.440Z,955
2016-05-03T13:00:22.443Z,815
2016-05-03T13:01:22.273Z,720
2016-05-03T13:02:22.401Z,675
2016-05-03T13:03:22.372Z,650
2016-05-03T13:04:22.359Z,640
2016-05-03T13:05:22.347Z,645
2016-05-03T13:06:22.192Z,645
2016-05-03T13:07:22.164Z,640
2016-05-03T13:08:22.369Z,630
2016-05-03T13:09:22.122Z,670
2016-05-03T13:10:22.250Z,750
2016-05-03T13:11:22.238Z,920
2016-05-03T13:12:22.225Z,845
2016-05-03T13:13:22.055Z,1125
2016-05-03T13:14:22.183Z,1285
2016-05-03T13:15:22.170Z,1130
2016-05-03T13:16:22.157Z,850
2016-05-03T13:17:21.988Z,755
2016-05-03T13:18:22.115Z,710
2016-05-03T13:19:22.118Z,770
2016-05-03T13:20:22.090Z,1870
2016-05-03T13:21:21.921Z,735
2016-05-03T13:22:22.063Z,640
2016-05-03T13:23:22.052Z,650
2016-05-03T13:24:21.997Z,700
2016-05-03T13:25:21.844Z,830
2016-05-03T13:26:21.987Z,1645
2016-05-03T13:27:21.818Z,525
2016-05-03T13:28:21.982Z,940
2016-05-03T13:29:21.994Z,2965
2016-05-03T13:30:22.022Z,520
2016-05-03T13:31:21.909Z,3110
2016-05-03T13:32:22.094Z,3150
2016-05-03T13:33:22.092Z,3250
2016-05-03T13:34:22.093Z,3260
2016-05-03T13:35:22.080Z,3095
2016-05-03T13:36:22.081Z,3080
2016-05-03T13:37:22.099Z,3090
2016-05-03T13:38:22.204Z,3235
2016-05-03T13:39:21.900Z,3195
2016-05-03T13:40:21.908Z,3140
2016-05-03T13:41:22.041Z,3170
2016-05-03T13:42:22.049Z,3235
2016-05-03T13:43:21.900Z,3200
2016-05-03T13:44:21.701Z,3230
2016-05-03T13:45:22.080Z,3170
2016-05-03T13:46:21.991Z,3065
2016-05-03T13:47:21.981Z,3125
2016-05-03T13:48:21.968Z,3150
2016-05-03T13:49:21.941Z,3120
2016-05-03T13:50:21.787Z,3170
2016-05-03T13:51:21.620Z,3245
2016-05-03T13:52:21.764Z,3380
2016-05-03T13:53:21.766Z,3440
2016-05-03T13:54:21.895Z,3320
2016-05-03T13:55:21.570Z,3260
2016-05-03T13:56:21.714Z,3065
2016-05-03T13:57:21.857Z,605
2016-05-03T13:58:21.845Z,3160